Time;durP1;ratioP1;P1;durP2;ratioP2;P2;SDS_P1;SDS_P2;PMS_P1;PMS_P2;Temp;Humidity;BMP_temperature;BMP_pressure;BME280_temperature;BME280_humidity;BME280_pressure;Samples;Min_cycle;Max_cycle;Signal;HPM_P1;HPM_P2
2023/05/22 00:01:18;;;;;;;24.60;15.87;;;17.00;82.80;;;;;;5023416;28;20575;-74
2023/05/22 00:03:47;;;;;;;22.23;13.83;;;17.00;82.80;;;;;;5016971;28;20486;-76
2023/05/22 00:06:13;;;;;;;21.67;14.27;;;17.00;82.70;;;;;;5013041;28;20445;-75
2023/05/22 00:08:39;;;;;;;22.20;13.60;;;17.00;82.50;;;;;;5023154;28;20436;-74
2023/05/22 00:11:05;;;;;;;25.30;13.10;;;17.00;82.50;;;;;;5019730;28;20479;-74
2023/05/22 00:13:30;;;;;;;23.90;14.73;;;17.00;81.90;;;;;;5013385;28;20197;-75
2023/05/22 00:15:56;;;;;;;23.53;13.70;;;17.00;82.10;;;;;;5019353;28;20182;-74
2023/05/22 00:18:22;;;;;;;23.50;13.93;;;17.00;82.40;;;;;;5008193;28;20566;-74
2023/05/22 00:20:49;;;;;;;24.10;14.50;;;17.00;82.50;;;;;;5014272;28;20194;-73
2023/05/22 00:23:16;;;;;;;25.23;14.93;;;17.00;82.50;;;;;;5008188;28;20428;-73
2023/05/22 00:25:41;;;;;;;23.20;13.97;;;17.00;82.80;;;;;;5017271;28;20512;-73
2023/05/22 00:28:07;;;;;;;20.47;13.23;;;17.00;82.70;;;;;;5008465;28;20662;-73
2023/05/22 00:30:32;;;;;;;21.23;12.63;;;17.00;82.80;;;;;;5014729;28;20190;-74
2023/05/22 00:32:58;;;;;;;26.47;14.17;;;17.00;82.80;;;;;;5015393;28;20187;-73
2023/05/22 00:35:24;;;;;;;24.90;14.60;;;17.00;82.80;;;;;;5016921;28;20676;-73
2023/05/22 00:37:49;;;;;;;22.60;12.83;;;17.00;82.80;;;;;;5017235;28;20265;-74
2023/05/22 00:40:15;;;;;;;17.40;11.97;;;17.00;83.10;;;;;;5015305;28;20281;-75
2023/05/22 00:42:44;;;;;;;21.87;13.70;;;17.00;83.10;;;;;;5014244;28;20275;-75
2023/05/22 00:45:10;;;;;;;26.77;13.20;;;17.00;83.00;;;;;;5010278;28;20247;-75
2023/05/22 00:47:36;;;;;;;24.10;14.57;;;16.90;83.10;;;;;;5006998;28;20528;-76
2023/05/22 00:50:04;;;;;;;24.80;14.90;;;16.90;83.10;;;;;;5017648;28;20864;-75
2023/05/22 00:52:30;;;;;;;27.57;14.43;;;16.80;83.60;;;;;;5020634;28;20273;-74
2023/05/22 00:54:56;;;;;;;23.90;13.10;;;16.90;83.10;;;;;;5014619;28;21334;-74
2023/05/22 00:57:23;;;;;;;23.37;14.00;;;16.80;82.80;;;;;;5010355;28;20469;-74
2023/05/22 00:59:49;;;;;;;23.77;14.30;;;16.70;83.10;;;;;;5024212;28;20186;-73
2023/05/22 01:02:15;;;;;;;22.73;14.07;;;16.70;83.30;;;;;;5026579;28;20429;-73
2023/05/22 01:04:47;;;;;;;23.90;15.40;;;16.70;83.30;;;;;;5027330;28;20527;-73
2023/05/22 01:07:13;;;;;;;21.43;13.90;;;16.60;83.40;;;;;;5018947;28;20213;-74
2023/05/22 01:09:38;;;;;;;22.27;14.23;;;16.60;83.70;;;;;;5024175;28;20432;-74
2023/05/22 01:12:31;;;;;;;24.23;14.73;;;16.60;84.00;;;;;;5023799;28;20908;-74
2023/05/22 01:15:58;;;;;;;27.70;16.37;;;16.50;84.10;;;;;;5020195;28;20186;-75
2023/05/22 01:18:30;;;;;;;23.17;14.00;;;16.40;84.10;;;;;;4956439;29;20987;-74
2023/05/22 01:21:04;;;;;;;26.63;14.37;;;16.40;84.60;;;;;;4954701;29;20823;-74
2023/05/22 01:23:57;;;;;;;23.30;13.90;;;16.40;84.60;;;;;;4950910;28;20907;-74
2023/05/22 01:27:10;;;;;;;26.27;15.33;;;16.40;84.40;;;;;;4949791;29;20467;-74
2023/05/22 01:29:57;;;;;;;21.00;14.03;;;16.40;84.40;;;;;;4950699;29;21057;-74
2023/05/22 01:32:25;;;;;;;23.17;14.90;;;16.30;84.40;;;;;;4960699;29;20509;-74
2023/05/22 01:34:58;;;;;;;24.63;14.17;;;16.40;84.30;;;;;;4960476;29;20458;-74
2023/05/22 01:37:24;;;;;;;25.47;13.60;;;16.30;84.00;;;;;;4959592;29;21125;-74
2023/05/22 01:39:51;;;;;;;27.03;14.97;;;16.10;84.40;;;;;;4956002;29;20432;-75
2023/05/22 01:42:18;;;;;;;26.47;14.27;;;16.00;85.00;;;;;;4959876;29;20468;-74
2023/05/22 01:44:43;;;;;;;28.87;16.13;;;15.90;85.30;;;;;;4964405;29;20458;-75
2023/05/22 01:47:09;;;;;;;26.00;14.70;;;15.90;85.60;;;;;;4962781;29;20482;-74
2023/05/22 01:49:35;;;;;;;25.17;15.43;;;15.80;85.70;;;;;;5007848;28;20206;-75
2023/05/22 01:52:04;;;;;;;28.00;15.50;;;15.80;86.20;;;;;;5027562;28;20217;-74
2023/05/22 01:54:38;;;;;;;28.40;14.20;;;15.80;86.50;;;;;;5026426;28;20444;-75
2023/05/22 01:57:25;;;;;;;25.00;14.80;;;15.80;86.60;;;;;;5023967;28;20531;-73
2023/05/22 02:00:08;;;;;;;23.40;14.20;;;15.80;86.80;;;;;;5023463;28;20417;-74
2023/05/22 02:02:37;;;;;;;23.67;14.47;;;15.90;86.80;;;;;;5027506;28;20451;-75
2023/05/22 02:05:04;;;;;;;26.23;14.87;;;15.80;86.60;;;;;;5026537;28;20519;-74
2023/05/22 02:07:32;;;;;;;25.93;15.40;;;15.90;86.60;;;;;;5020941;28;20475;-74
2023/05/22 02:09:58;;;;;;;24.17;15.10;;;15.90;85.70;;;;;;5026099;28;20428;-73
2023/05/22 02:12:24;;;;;;;25.00;15.53;;;15.80;85.60;;;;;;5026696;28;20547;-73
2023/05/22 02:14:51;;;;;;;23.50;14.37;;;15.60;86.20;;;;;;5021068;28;20478;-74
2023/05/22 02:17:16;;;;;;;26.93;16.03;;;15.60;86.90;;;;;;5024666;28;20490;-74
2023/05/22 02:19:43;;;;;;;25.80;15.27;;;15.60;86.90;;;;;;5031428;28;20447;-75
2023/05/22 02:22:12;;;;;;;28.10;15.50;;;15.50;87.10;;;;;;5025403;28;20849;-74
2023/05/22 02:24:40;;;;;;;25.13;16.10;;;15.50;87.60;;;;;;5026442;28;20914;-74
2023/05/22 02:27:06;;;;;;;25.73;14.47;;;15.60;87.60;;;;;;5021434;28;20456;-75
2023/05/22 02:29:31;;;;;;;26.70;16.00;;;15.60;87.70;;;;;;5017463;28;20582;-75
2023/05/22 02:31:57;;;;;;;28.17;15.70;;;15.60;87.60;;;;;;5018795;28;20686;-75
2023/05/22 02:34:22;;;;;;;27.37;16.30;;;15.60;87.70;;;;;;5025179;28;20190;-74
2023/05/22 02:36:49;;;;;;;26.93;14.93;;;15.70;87.80;;;;;;5017093;28;20234;-75
2023/05/22 02:39:16;;;;;;;26.47;15.23;;;15.70;87.60;;;;;;5017429;28;20675;-74
2023/05/22 02:41:42;;;;;;;25.73;15.10;;;15.80;87.40;;;;;;5014751;28;20446;-76
2023/05/22 02:44:08;;;;;;;28.23;14.93;;;15.90;86.00;;;;;;5014296;28;20791;-74
2023/05/22 02:46:33;;;;;;;24.47;13.97;;;15.70;85.30;;;;;;5005619;28;20217;-75
2023/05/22 02:48:59;;;;;;;25.03;14.67;;;15.60;85.90;;;;;;5014312;28;20210;-75
2023/05/22 02:51:24;;;;;;;27.23;14.97;;;15.50;86.30;;;;;;5011372;28;20222;-75
2023/05/22 02:53:51;;;;;;;26.60;14.63;;;15.40;86.60;;;;;;5010889;28;20184;-75
2023/05/22 02:56:17;;;;;;;26.90;14.47;;;15.30;87.10;;;;;;5007732;28;20207;-74
2023/05/22 02:58:43;;;;;;;28.07;14.77;;;15.40;87.10;;;;;;5009793;28;20952;-74
2023/05/22 03:01:09;;;;;;;22.60;14.50;;;15.40;87.30;;;;;;5014605;28;20431;-75
2023/05/22 03:03:35;;;;;;;24.63;14.20;;;15.40;87.10;;;;;;5009148;28;20421;-74
2023/05/22 03:06:02;;;;;;;24.30;14.57;;;15.50;87.10;;;;;;5007604;28;20189;-74
2023/05/22 03:08:30;;;;;;;27.77;15.00;;;15.50;87.00;;;;;;5015877;28;20467;-73
2023/05/22 03:10:56;;;;;;;28.17;16.00;;;15.60;86.90;;;;;;5023348;28;20441;-74
2023/05/22 03:13:22;;;;;;;27.60;14.83;;;15.60;86.90;;;;;;5017762;28;20424;-74
2023/05/22 03:15:48;;;;;;;23.47;14.20;;;15.50;87.00;;;;;;5016631;28;20422;-75
2023/05/22 03:18:15;;;;;;;24.43;14.83;;;15.60;87.30;;;;;;5014787;28;20484;-74
2023/05/22 03:20:40;;;;;;;27.60;15.27;;;15.60;87.10;;;;;;5010607;28;20625;-75
2023/05/22 03:23:06;;;;;;;26.83;15.13;;;15.70;86.80;;;;;;5014047;28;20432;-74
2023/05/22 03:25:31;;;;;;;25.47;14.07;;;15.70;86.30;;;;;;5012139;28;20293;-74
2023/05/22 03:27:57;;;;;;;30.40;14.90;;;15.70;86.30;;;;;;5010224;28;20213;-74
2023/05/22 03:30:23;;;;;;;28.80;16.10;;;15.70;86.30;;;;;;5019119;28;20178;-75
2023/05/22 03:32:48;;;;;;;24.73;15.10;;;15.70;86.00;;;;;;5023913;28;20285;-75
2023/05/22 03:35:18;;;;;;;25.00;15.17;;;15.80;86.00;;;;;;5013093;28;20206;-74
2023/05/22 03:37:45;;;;;;;27.23;15.03;;;15.70;85.90;;;;;;5014226;28;20217;-75
2023/05/22 03:40:11;;;;;;;25.30;14.80;;;15.80;86.30;;;;;;5014006;28;20427;-75
2023/05/22 03:42:37;;;;;;;22.43;13.47;;;15.80;86.20;;;;;;5020546;28;20424;-74
2023/05/22 03:45:03;;;;;;;21.60;13.50;;;15.90;85.60;;;;;;5034163;28;20436;-77
2023/05/22 03:47:28;;;;;;;28.77;15.60;;;16.00;84.90;;;;;;5035190;28;20235;-76
2023/05/22 03:49:54;;;;;;;26.50;15.30;;;15.90;84.70;;;;;;5032073;28;20441;-76
2023/05/22 03:52:21;;;;;;;26.43;14.57;;;15.80;85.00;;;;;;5025602;28;20245;-75
2023/05/22 03:54:46;;;;;;;27.40;16.77;;;15.80;85.50;;;;;;5033283;28;20192;-75
2023/05/22 03:57:13;;;;;;;25.03;14.10;;;15.70;85.50;;;;;;5022619;28;20456;-74
2023/05/22 03:59:38;;;;;;;23.80;14.77;;;15.70;85.70;;;;;;5022018;28;20184;-76
2023/05/22 04:02:04;;;;;;;25.40;15.47;;;15.80;85.30;;;;;;5017670;28;20451;-76
2023/05/22 04:04:31;;;;;;;22.40;13.80;;;15.90;84.70;;;;;;5018559;28;20243;-76
2023/05/22 04:06:56;;;;;;;25.83;14.20;;;15.90;84.40;;;;;;5012012;28;20244;-75
2023/05/22 04:09:26;;;;;;;23.60;15.10;;;16.00;84.30;;;;;;5014437;28;20469;-74
2023/05/22 04:11:52;;;;;;;23.57;14.03;;;15.90;84.40;;;;;;5012612;28;20210;-74
2023/05/22 04:14:18;;;;;;;24.13;14.40;;;15.90;84.70;;;;;;5015678;28;20430;-76
2023/05/22 04:16:43;;;;;;;28.37;15.30;;;15.90;84.90;;;;;;5008996;28;20210;-75
2023/05/22 04:19:09;;;;;;;26.10;15.00;;;16.00;85.00;;;;;;5018201;28;20531;-75
2023/05/22 04:21:35;;;;;;;26.67;15.27;;;16.00;84.90;;;;;;5025704;28;20227;-76
2023/05/22 04:24:05;;;;;;;25.07;15.50;;;16.00;84.70;;;;;;5022532;28;20267;-76
2023/05/22 04:26:31;;;;;;;26.30;14.07;;;16.10;84.60;;;;;;5010799;28;20461;-76
2023/05/22 04:28:57;;;;;;;25.63;15.33;;;16.10;84.60;;;;;;5014723;28;20431;-76
2023/05/22 04:31:22;;;;;;;24.63;15.87;;;16.10;84.10;;;;;;5014308;28;20471;-76
2023/05/22 04:33:49;;;;;;;24.40;15.10;;;16.10;84.10;;;;;;5019493;28;20189;-75
2023/05/22 04:36:16;;;;;;;22.17;13.47;;;16.10;84.40;;;;;;5023703;28;20206;-76
2023/05/22 04:38:43;;;;;;;26.77;15.30;;;16.10;84.40;;;;;;5033833;28;20506;-76
2023/05/22 04:41:11;;;;;;;27.23;15.23;;;16.00;84.90;;;;;;5031561;28;20425;-75
2023/05/22 04:43:37;;;;;;;24.33;14.53;;;15.90;85.50;;;;;;5030834;28;20421;-76
2023/05/22 04:46:03;;;;;;;27.30;15.97;;;15.90;85.60;;;;;;5031276;28;20421;-76
2023/05/22 04:48:29;;;;;;;24.93;15.33;;;15.90;85.60;;;;;;5038281;28;20508;-75
2023/05/22 04:50:56;;;;;;;29.83;17.30;;;15.90;85.70;;;;;;5022929;28;20246;-76
2023/05/22 04:53:21;;;;;;;27.13;14.93;;;16.00;85.60;;;;;;5023284;28;20436;-75
2023/05/22 04:55:48;;;;;;;28.53;15.90;;;15.90;85.50;;;;;;5025919;28;20443;-76
2023/05/22 04:58:13;;;;;;;22.37;14.20;;;16.00;85.30;;;;;;5008294;28;20257;-75
2023/05/22 05:00:39;;;;;;;27.87;16.30;;;16.10;85.20;;;;;;5016157;28;20947;-76
2023/05/22 05:03:06;;;;;;;29.37;16.63;;;16.10;85.00;;;;;;5019387;28;20264;-75
2023/05/22 05:05:32;;;;;;;28.17;15.37;;;16.00;85.20;;;;;;5016994;28;20194;-75
2023/05/22 05:07:58;;;;;;;29.90;17.33;;;16.00;85.50;;;;;;5010701;28;20537;-75
2023/05/22 05:10:24;;;;;;;28.50;16.03;;;16.00;85.60;;;;;;5018193;28;20504;-75
2023/05/22 05:12:49;;;;;;;32.57;16.33;;;16.00;85.70;;;;;;5020421;28;20206;-75
2023/05/22 05:15:15;;;;;;;32.03;15.83;;;16.10;85.30;;;;;;5019520;28;20552;-75
2023/05/22 05:17:41;;;;;;;26.70;14.40;;;16.20;84.90;;;;;;5011132;28;20229;-76
2023/05/22 05:20:07;;;;;;;32.97;16.70;;;16.30;85.00;;;;;;5010636;28;20198;-77
2023/05/22 05:22:33;;;;;;;27.97;15.70;;;16.40;84.40;;;;;;5011299;28;20186;-75
2023/05/22 05:24:58;;;;;;;30.10;18.17;;;16.40;84.60;;;;;;5012403;28;20421;-75
2023/05/22 05:27:24;;;;;;;30.50;15.77;;;16.50;84.10;;;;;;5010893;28;20267;-76
2023/05/22 05:29:50;;;;;;;25.37;15.27;;;16.40;83.80;;;;;;5005114;28;20277;-75
2023/05/22 05:32:16;;;;;;;27.83;17.50;;;16.60;84.00;;;;;;5012645;28;20503;-75
2023/05/22 05:34:42;;;;;;;28.60;15.87;;;16.80;83.00;;;;;;5015729;28;20183;-76
2023/05/22 05:37:07;;;;;;;30.47;16.20;;;17.00;82.40;;;;;;5008507;28;20464;-76
2023/05/22 05:39:33;;;;;;;30.03;16.20;;;17.00;81.90;;;;;;5014242;28;20224;-76
2023/05/22 05:41:59;;;;;;;28.70;16.20;;;17.10;81.70;;;;;;5013242;28;20225;-76
2023/05/22 05:44:24;;;;;;;25.27;15.80;;;17.20;81.10;;;;;;5010685;28;20224;-77
2023/05/22 05:46:51;;;;;;;30.90;18.87;;;17.30;81.50;;;;;;5011498;28;20567;-75
2023/05/22 05:49:18;;;;;;;27.73;17.27;;;17.30;81.20;;;;;;5017515;28;20190;-76
2023/05/22 05:51:44;;;;;;;29.20;16.37;;;17.50;80.80;;;;;;5013143;28;20462;-77
2023/05/22 05:54:09;;;;;;;28.00;15.70;;;17.70;80.20;;;;;;5018331;28;20479;-76
2023/05/22 05:56:36;;;;;;;27.90;15.60;;;17.90;79.20;;;;;;5006554;28;20232;-76
2023/05/22 05:59:02;;;;;;;27.17;15.30;;;18.00;78.70;;;;;;5010413;28;20248;-75
2023/05/22 06:01:29;;;;;;;26.27;16.17;;;18.00;77.70;;;;;;5010519;28;20872;-76
2023/05/22 06:03:55;;;;;;;29.80;17.43;;;18.00;78.30;;;;;;5019908;28;20534;-75
2023/05/22 06:06:24;;;;;;;30.57;16.93;;;18.10;78.10;;;;;;5011816;28;20568;-76
2023/05/22 06:08:50;;;;;;;28.83;16.20;;;18.30;77.80;;;;;;5024627;28;20284;-76
2023/05/22 06:11:15;;;;;;;29.90;17.77;;;18.40;77.80;;;;;;5018427;28;20576;-75
2023/05/22 06:13:41;;;;;;;32.40;19.27;;;18.50;77.40;;;;;;5015699;28;20178;-76
2023/05/22 06:16:06;;;;;;;25.67;15.40;;;18.50;77.40;;;;;;5012655;28;20245;-75
2023/05/22 06:18:32;;;;;;;34.20;18.50;;;18.50;77.10;;;;;;5009172;28;20240;-75
2023/05/22 06:20:58;;;;;;;29.70;17.23;;;18.50;76.70;;;;;;5013787;28;20189;-76
2023/05/22 06:23:23;;;;;;;29.87;17.63;;;18.40;77.10;;;;;;5005163;28;20350;-76
2023/05/22 06:25:49;;;;;;;26.87;15.93;;;18.40;77.10;;;;;;5012782;28;20607;-76
2023/05/22 06:28:14;;;;;;;31.60;18.40;;;18.40;77.40;;;;;;5017895;28;20216;-76
2023/05/22 06:30:40;;;;;;;35.03;18.47;;;18.40;77.40;;;;;;5011243;28;20195;-75
2023/05/22 06:33:06;;;;;;;25.97;15.70;;;18.40;77.40;;;;;;5011582;28;20221;-76
2023/05/22 06:35:32;;;;;;;27.63;15.77;;;18.50;77.40;;;;;;5007181;28;20217;-73
2023/05/22 06:37:57;;;;;;;28.07;18.20;;;18.70;77.60;;;;;;5008470;28;20460;-74
2023/05/22 06:40:23;;;;;;;31.00;16.33;;;18.80;75.90;;;;;;5017627;28;20208;-73
2023/05/22 06:42:49;;;;;;;26.80;16.97;;;18.80;76.20;;;;;;5021689;28;20634;-72
2023/05/22 06:45:16;;;;;;;23.93;14.90;;;19.00;76.40;;;;;;5014753;28;20195;-74
2023/05/22 06:47:42;;;;;;;27.67;16.40;;;19.20;75.70;;;;;;5011840;28;20711;-72
2023/05/22 06:50:09;;;;;;;23.00;13.40;;;19.30;74.90;;;;;;5009771;28;20464;-73
2023/05/22 06:52:35;;;;;;;29.53;16.00;;;19.40;75.10;;;;;;5016682;28;20203;-72
2023/05/22 06:55:04;;;;;;;23.13;14.80;;;19.50;74.50;;;;;;5026378;28;20420;-73
2023/05/22 06:57:33;;;;;;;28.87;16.90;;;19.50;74.60;;;;;;5013553;28;20456;-72
2023/05/22 06:59:59;;;;;;;29.03;16.80;;;19.50;73.50;;;;;;5011649;28;20412;-74
2023/05/22 07:02:25;;;;;;;27.27;15.47;;;19.20;74.60;;;;;;5011179;28;20421;-73
2023/05/22 07:04:53;;;;;;;30.00;15.80;;;19.30;74.60;;;;;;5011099;28;20428;-73
2023/05/22 07:07:19;;;;;;;27.13;15.50;;;19.40;74.50;;;;;;5004397;28;20217;-74
2023/05/22 07:09:45;;;;;;;30.70;15.83;;;19.60;73.60;;;;;;5020726;28;20434;-74
2023/05/22 07:12:12;;;;;;;25.63;15.87;;;19.50;74.00;;;;;;5010973;28;20217;-75
2023/05/22 07:14:37;;;;;;;28.27;15.97;;;19.60;73.50;;;;;;5018683;28;20436;-76
2023/05/22 07:17:03;;;;;;;28.30;15.40;;;19.50;73.90;;;;;;5007698;28;20462;-75
2023/05/22 07:19:29;;;;;;;24.27;14.10;;;19.50;74.20;;;;;;5014266;28;20589;-73
2023/05/22 07:21:54;;;;;;;30.57;17.50;;;19.50;74.30;;;;;;5010298;28;20272;-73
2023/05/22 07:24:20;;;;;;;24.70;14.60;;;19.70;73.30;;;;;;5018962;28;20190;-73
2023/05/22 07:26:45;;;;;;;27.37;15.97;;;19.80;73.20;;;;;;5017812;28;20206;-74
2023/05/22 07:29:12;;;;;;;25.50;14.63;;;20.00;72.70;;;;;;5037595;28;20187;-76
2023/05/22 07:31:38;;;;;;;23.47;14.70;;;20.00;72.70;;;;;;5027709;28;20212;-80
2023/05/22 07:34:04;;;;;;;25.60;15.30;;;20.20;72.40;;;;;;5030738;28;20779;-79
2023/05/22 07:36:30;;;;;;;28.00;17.13;;;20.40;72.10;;;;;;5018223;28;20572;-77
2023/05/22 07:38:56;;;;;;;25.67;16.67;;;20.40;71.30;;;;;;5012478;28;20187;-78
2023/05/22 07:41:23;;;;;;;35.93;18.10;;;20.40;71.10;;;;;;5016399;28;20426;-79
2023/05/22 07:43:48;;;;;;;28.83;16.27;;;20.40;71.10;;;;;;5022215;28;21048;-78
2023/05/22 07:46:14;;;;;;;25.40;14.70;;;20.50;71.10;;;;;;5016972;28;20468;-78
2023/05/22 07:48:40;;;;;;;33.20;15.67;;;20.60;70.70;;;;;;5021527;28;20836;-78
2023/05/22 07:51:06;;;;;;;24.70;15.17;;;20.70;70.80;;;;;;5020957;28;20228;-78
2023/05/22 07:53:32;;;;;;;24.03;14.70;;;20.80;70.80;;;;;;5029852;28;20726;-78
2023/05/22 07:55:58;;;;;;;23.33;13.27;;;21.00;70.20;;;;;;5026039;28;20499;-77
2023/05/22 07:58:24;;;;;;;26.10;14.53;;;21.20;69.90;;;;;;5024793;28;20203;-79
2023/05/22 08:00:49;;;;;;;31.33;16.20;;;21.40;69.20;;;;;;5031603;28;20208;-78
2023/05/22 08:03:15;;;;;;;26.00;15.17;;;21.50;68.50;;;;;;5033002;28;20430;-78
2023/05/22 08:05:40;;;;;;;28.73;14.87;;;21.60;68.80;;;;;;5030187;28;20198;-78
2023/05/22 08:08:06;;;;;;;22.70;14.07;;;21.80;68.30;;;;;;5027227;28;20619;-77
2023/05/22 08:10:32;;;;;;;22.30;14.40;;;21.90;68.30;;;;;;5036253;28;20581;-77
2023/05/22 08:13:01;;;;;;;23.33;13.60;;;21.90;67.90;;;;;;5023522;28;20207;-78
2023/05/22 08:15:26;;;;;;;24.20;14.83;;;21.90;67.90;;;;;;5035944;28;20189;-79
2023/05/22 08:17:52;;;;;;;25.17;14.20;;;22.10;67.70;;;;;;5030663;28;20463;-79
2023/05/22 08:20:18;;;;;;;23.03;13.80;;;22.20;67.20;;;;;;5026714;28;20203;-79
2023/05/22 08:22:43;;;;;;;28.00;15.50;;;22.20;67.30;;;;;;5023226;28;20586;-77
2023/05/22 08:25:09;;;;;;;26.70;16.17;;;22.10;67.30;;;;;;5015581;28;20599;-76
2023/05/22 08:27:34;;;;;;;27.47;15.07;;;22.00;67.50;;;;;;5019870;28;20227;-77
2023/05/22 08:30:02;;;;;;;24.33;15.23;;;21.80;67.50;;;;;;5035598;28;20192;-76
2023/05/22 08:32:28;;;;;;;22.77;13.80;;;21.80;67.50;;;;;;5031946;28;20214;-76
2023/05/22 08:34:53;;;;;;;25.93;15.67;;;22.00;67.70;;;;;;5022595;28;20499;-78
2023/05/22 08:37:20;;;;;;;21.33;13.60;;;22.20;66.90;;;;;;5013397;28;20942;-77
2023/05/22 08:39:45;;;;;;;20.80;14.60;;;22.50;66.70;;;;;;5014586;28;20219;-77
2023/05/22 08:42:11;;;;;;;25.30;15.13;;;22.70;66.70;;;;;;5024015;28;20771;-77
2023/05/22 08:44:36;;;;;;;23.83;14.23;;;23.00;66.00;;;;;;5015269;28;20190;-78
2023/05/22 08:47:08;;;;;;;20.37;14.30;;;23.20;65.30;;;;;;5013054;28;20223;-79
2023/05/22 08:49:34;;;;;;;21.53;13.20;;;23.20;64.80;;;;;;5013708;28;20225;-77
2023/05/22 08:52:06;;;;;;;22.87;12.87;;;22.60;65.30;;;;;;5022506;28;20449;-76
2023/05/22 08:54:35;;;;;;;20.27;13.67;;;22.70;65.10;;;;;;5014054;28;20470;-77
2023/05/22 08:57:01;;;;;;;17.87;12.03;;;22.80;64.70;;;;;;5007273;28;20459;-78
2023/05/22 08:59:28;;;;;;;21.40;12.97;;;23.00;65.60;;;;;;5012515;28;20574;-77
2023/05/22 09:01:54;;;;;;;20.10;12.47;;;23.30;65.30;;;;;;5016588;28;20419;-76
2023/05/22 09:04:22;;;;;;;21.63;13.07;;;23.70;64.10;;;;;;5010893;28;20941;-76
2023/05/22 09:06:48;;;;;;;22.80;13.20;;;23.90;63.80;;;;;;5013944;28;20688;-76
2023/05/22 09:09:14;;;;;;;17.93;13.27;;;24.10;64.40;;;;;;5013489;28;20420;-77
2023/05/22 09:11:39;;;;;;;23.07;13.50;;;23.90;65.40;;;;;;5013233;28;20837;-78
2023/05/22 09:14:07;;;;;;;24.50;14.33;;;23.90;65.60;;;;;;5016165;28;20187;-77
2023/05/22 09:16:32;;;;;;;21.40;13.83;;;23.90;65.10;;;;;;5014887;28;20208;-77
2023/05/22 09:18:58;;;;;;;22.37;14.87;;;23.50;65.40;;;;;;5017853;28;20446;-77
2023/05/22 09:21:26;;;;;;;22.43;14.13;;;23.10;66.00;;;;;;5011979;28;20307;-75
2023/05/22 09:23:52;;;;;;;28.70;15.60;;;22.90;66.70;;;;;;5021560;28;20441;-78
2023/05/22 09:26:18;;;;;;;25.97;15.67;;;22.80;66.70;;;;;;5016829;28;21292;-77
2023/05/22 09:28:45;;;;;;;22.43;14.20;;;22.80;66.70;;;;;;5018203;28;20469;-75
2023/05/22 09:31:11;;;;;;;26.40;12.80;;;22.70;67.20;;;;;;5012769;28;20843;-77
2023/05/22 09:33:37;;;;;;;25.10;14.63;;;23.10;66.90;;;;;;5002537;28;20433;-77
2023/05/22 09:36:03;;;;;;;20.40;12.63;;;23.70;65.70;;;;;;5012526;28;20187;-76
2023/05/22 09:38:29;;;;;;;20.23;13.20;;;24.10;64.80;;;;;;5016826;28;20722;-77
2023/05/22 09:40:55;;;;;;;22.80;13.60;;;24.50;64.10;;;;;;5013127;28;20218;-77
2023/05/22 09:43:24;;;;;;;26.33;15.07;;;24.80;63.20;;;;;;5019031;28;20572;-77
2023/05/22 09:45:55;;;;;;;19.30;12.73;;;24.90;63.10;;;;;;5010365;28;20436;-78
2023/05/22 09:48:21;;;;;;;19.07;12.87;;;25.00;63.50;;;;;;5016150;28;20467;-76
2023/05/22 09:50:48;;;;;;;19.13;13.60;;;25.20;62.60;;;;;;5014392;28;20430;-78
2023/05/22 09:53:15;;;;;;;22.90;14.40;;;24.90;62.30;;;;;;5019995;28;20248;-77
2023/05/22 09:55:42;;;;;;;22.10;14.50;;;24.60;63.10;;;;;;5016031;28;20441;-79
2023/05/22 09:58:12;;;;;;;27.27;13.47;;;24.40;63.10;;;;;;5015254;28;20817;-77
2023/05/22 10:00:38;;;;;;;17.00;12.63;;;24.00;63.80;;;;;;5024250;28;20425;-77
2023/05/22 10:03:10;;;;;;;22.87;13.53;;;24.30;63.70;;;;;;5033427;28;20505;-76
2023/05/22 10:05:39;;;;;;;20.37;13.50;;;24.30;63.50;;;;;;5015332;28;20430;-78
2023/05/22 10:08:10;;;;;;;22.87;12.87;;;24.70;62.60;;;;;;5012421;28;20495;-77
2023/05/22 10:10:37;;;;;;;17.90;12.47;;;24.60;63.10;;;;;;5002514;28;21048;-76
2023/05/22 10:13:07;;;;;;;23.50;14.10;;;24.40;64.10;;;;;;5016832;28;20466;-78
2023/05/22 10:15:37;;;;;;;20.00;12.70;;;24.60;63.70;;;;;;5011337;28;20432;-77
2023/05/22 10:18:03;;;;;;;18.13;13.20;;;24.70;63.10;;;;;;5008850;28;20493;-77
2023/05/22 10:20:29;;;;;;;23.00;14.23;;;24.80;62.90;;;;;;5014231;28;20432;-79
2023/05/22 10:22:55;;;;;;;21.80;14.33;;;25.10;61.70;;;;;;5014197;28;20438;-77
2023/05/22 10:25:22;;;;;;;21.40;14.27;;;25.00;61.30;;;;;;5017380;28;20203;-79
2023/05/22 10:27:50;;;;;;;20.17;13.97;;;23.90;63.70;;;;;;5012530;28;20466;-78
2023/05/22 10:30:33;;;;;;;20.10;13.20;;;24.10;64.50;;;;;;5013916;28;20786;-78
2023/05/22 10:33:30;;;;;;;19.20;12.10;;;24.30;64.50;;;;;;5016934;28;20524;-78
2023/05/22 10:36:01;;;;;;;20.77;12.80;;;25.00;63.20;;;;;;5010603;28;20450;-77
2023/05/22 10:38:39;;;;;;;23.60;12.97;;;25.50;62.00;;;;;;5010986;28;20448;-79
2023/05/22 10:41:05;;;;;;;20.57;13.37;;;25.50;61.50;;;;;;5015716;28;20434;-78
2023/05/22 10:43:31;;;;;;;19.80;12.33;;;25.50;60.70;;;;;;5013212;28;20797;-77
2023/05/22 10:46:04;;;;;;;20.47;14.33;;;25.00;60.60;;;;;;5014338;28;20522;-78
2023/05/22 10:48:37;;;;;;;22.40;13.67;;;24.70;62.90;;;;;;5019971;28;20504;-76
2023/05/22 10:51:03;;;;;;;19.17;13.13;;;24.70;63.10;;;;;;5011121;28;20423;-77
2023/05/22 10:53:31;;;;;;;19.20;12.30;;;25.10;62.60;;;;;;5012858;28;20489;-78
2023/05/22 10:56:01;;;;;;;22.03;13.90;;;25.50;61.70;;;;;;5010878;28;20433;-77
2023/05/22 10:58:29;;;;;;;21.60;15.33;;;26.20;60.90;;;;;;5011041;28;20435;-78
2023/05/22 11:01:15;;;;;;;21.00;14.10;;;26.20;59.70;;;;;;5010832;28;20500;-76
2023/05/22 11:04:11;;;;;;;21.53;13.67;;;25.50;61.00;;;;;;5005902;28;20490;-77
2023/05/22 11:06:47;;;;;;;25.17;14.83;;;25.20;62.20;;;;;;5008322;28;20462;-76
2023/05/22 11:09:30;;;;;;;18.60;13.80;;;25.40;61.30;;;;;;5017244;28;20498;-77
2023/05/22 11:12:21;;;;;;;19.43;13.23;;;25.20;61.50;;;;;;5010444;28;20513;-77
2023/05/22 11:14:50;;;;;;;21.17;12.70;;;25.60;60.60;;;;;;5014192;28;20429;-77
2023/05/22 11:17:21;;;;;;;21.27;14.53;;;26.40;59.60;;;;;;5010233;28;20459;-77
2023/05/22 11:19:59;;;;;;;21.33;13.60;;;26.60;58.90;;;;;;5008089;28;20613;-78
2023/05/22 11:22:49;;;;;;;22.83;15.00;;;25.90;61.00;;;;;;5005926;28;20416;-77
2023/05/22 11:25:16;;;;;;;19.00;12.93;;;26.50;60.00;;;;;;5008115;28;20792;-77
2023/05/22 11:27:43;;;;;;;19.07;12.63;;;26.00;61.20;;;;;;5011126;28;20503;-75
2023/05/22 11:30:10;;;;;;;20.30;13.90;;;26.40;60.60;;;;;;5011210;28;20457;-77
2023/05/22 11:32:37;;;;;;;20.93;13.63;;;26.30;61.00;;;;;;5011664;28;20525;-78
2023/05/22 11:35:04;;;;;;;21.67;14.10;;;26.30;60.70;;;;;;5008803;28;20422;-79
2023/05/22 11:37:31;;;;;;;21.00;14.07;;;25.90;61.60;;;;;;5015069;28;20467;-76
2023/05/22 11:39:59;;;;;;;19.07;12.50;;;25.50;62.20;;;;;;5007599;28;20417;-76
2023/05/22 11:42:25;;;;;;;19.97;12.40;;;25.60;62.30;;;;;;5006156;28;20463;-77
2023/05/22 11:44:50;;;;;;;18.97;11.93;;;25.70;60.90;;;;;;5002165;28;20984;-76
2023/05/22 11:47:16;;;;;;;18.90;12.70;;;25.60;61.50;;;;;;5015890;28;20212;-79
2023/05/22 11:49:42;;;;;;;19.10;12.23;;;26.00;60.30;;;;;;5015306;28;20196;-76
2023/05/22 11:52:09;;;;;;;18.50;11.50;;;26.10;58.40;;;;;;5010811;28;20205;-77
2023/05/22 11:54:35;;;;;;;21.33;11.60;;;26.60;57.00;;;;;;5016593;28;21014;-76
2023/05/22 11:57:07;;;;;;;20.00;13.10;;;26.00;57.20;;;;;;5011552;28;20538;-76
2023/05/22 11:59:33;;;;;;;20.10;12.77;;;25.70;58.10;;;;;;5009473;28;20475;-77
2023/05/22 12:01:59;;;;;;;18.47;13.00;;;25.90;57.20;;;;;;5016887;28;20941;-75
2023/05/22 12:04:25;;;;;;;22.17;13.00;;;25.80;59.10;;;;;;5018602;28;20231;-75
2023/05/22 12:06:52;;;;;;;18.50;12.63;;;25.90;59.20;;;;;;5014133;28;20262;-75
2023/05/22 12:09:17;;;;;;;17.93;11.60;;;25.90;54.50;;;;;;5017041;28;20579;-76
2023/05/22 12:11:47;;;;;;;24.80;13.20;;;26.40;54.50;;;;;;5014230;28;20493;-76
2023/05/22 12:14:13;;;;;;;17.10;12.93;;;26.50;57.00;;;;;;5008048;28;20186;-76
2023/05/22 12:16:38;;;;;;;20.00;11.80;;;26.50;57.80;;;;;;5018233;28;20462;-76
2023/05/22 12:19:07;;;;;;;20.90;13.53;;;26.40;58.90;;;;;;5028015;28;20228;-77
2023/05/22 12:21:34;;;;;;;18.83;12.97;;;26.40;59.20;;;;;;5021164;28;20343;-76
2023/05/22 12:24:03;;;;;;;19.13;12.03;;;26.30;60.10;;;;;;5023743;28;20946;-77
2023/05/22 12:26:29;;;;;;;36.37;14.47;;;26.70;59.20;;;;;;5011465;28;20471;-75
2023/05/22 12:28:57;;;;;;;19.97;13.90;;;26.30;60.00;;;;;;5007692;28;20958;-76
2023/05/22 12:31:23;;;;;;;19.50;14.17;;;26.50;59.60;;;;;;5018424;28;20495;-76